IBISHOPW3 Weather Reports


Display with metric or nautical units.
time (UTC)temp
F
wind
direction
speed
MPH
gust
MPH
rain 1hr
in
rain 24hr
in
rain mn
in
humidity
%
barometer
mb
20191117172415 46 13 0.0 0.0 0.00 0.02 0.01 88 1015.6
20191117171348 46 358 0.0 0.0 0.00 0.02 0.01 88 1015.7
20191117170325 46 2 0.0 0.0 0.00 0.02 0.01 88 1015.6
20191117165305 46 17 0.0 0.0 0.00 0.02 0.01 88 1015.6
20191117164257 46 17 0.0 0.0 0.00 0.02 0.01 89 1015.4
20191117163316 47 12 0.0 0.0 0.00 0.02 0.01 89 1015.3
20191117162335 47 13 0.0 0.0 0.00 0.02 0.01 88 1015.1
20191117161342 47 25 0.0 0.0 0.00 0.02 0.01 88 1015.1
20191117160349 47 30 3.0 13.0 0.00 0.02 0.01 88 1014.9
20191117155320 47 13 0.0 0.0 0.00 0.02 0.01 88 1014.8
20191117154322 48 349 5.0 0.0 0.00 0.02 0.01 88 1014.7
20191117153247 48 352 6.0 11.0 0.00 0.02 0.01 88 1014.6
20191117152231 48 16 6.0 11.0 0.00 0.02 0.01 87 1014.5
20191117151242 48 12 6.0 11.0 0.00 0.02 0.01 87 1014.4
20191117150217 48 1 8.0 12.0 0.00 0.02 0.01 87 1014.1
20191117145145 48 23 8.0 16.0 0.00 0.02 0.01 86 1013.8
20191117144141 48 6 9.0 16.0 0.00 0.02 0.01 86 1013.7
20191117143128 48 15 10.0 15.0 0.00 0.02 0.01 86 1013.5
20191117142107 49 12 11.0 17.0 0.00 0.02 0.01 86 1013.4
20191117141122 49 44 11.0 17.0 0.00 0.02 0.01 86 1013.4
20191117140108 49 24 9.0 16.0 0.00 0.02 0.01 87 1013.2
20191117135058 49 25 10.0 16.0 0.00 0.02 0.01 87 1013.2
20191117134042 49 33 8.0 15.0 0.00 0.02 0.01 88 1013.2
20191117133021 49 11 8.0 16.0 0.00 0.02 0.01 89 1013.2
20191117132036 49 4 9.0 16.0 0.00 0.02 0.01 89 1013.1
20191117131053 48 355 8.0 16.0 0.00 0.02 0.01 89 1013.1
20191117130050 49 14 7.0 12.0 0.00 0.02 0.01 90 1012.9
20191117125031 49 8 6.0 11.0 0.00 0.02 0.01 90 1012.8
20191117124052 49 46 7.0 12.0 0.00 0.02 0.01 89 1012.9
20191117123102 49 45 9.0 17.0 0.00 0.02 0.01 89 1012.9
20191117122048 49 16 9.0 17.0 0.00 0.02 0.01 90 1012.8
20191117121107 49 342 6.0 11.0 0.00 0.02 0.01 91 1012.7
20191117120040 49 18 6.0 9.0 0.00 0.02 0.01 92 1012.7
20191117115007 48 39 6.0 10.0 0.00 0.02 0.01 92 1012.7
20191117114008 48 33 5.0 10.0 0.00 0.02 0.01 92 1012.7
20191117112958 48 19 7.0 10.0 0.00 0.02 0.01 93 1012.6
20191117112006 48 8 6.0 10.0 0.00 0.02 0.01 93 1012.6
20191117110937 48 21 5.0 9.0 0.00 0.02 0.01 94 1012.6
20191117105948 48 359 6.0 10.0 0.00 0.02 0.01 94 1012.6
20191117104920 48 25 7.0 13.0 0.00 0.02 0.01 94 1012.5
20191117103926 47 15 7.0 13.0 0.00 0.02 0.01 94 1012.4
20191117102932 47 18 8.0 12.0 0.00 0.02 0.01 94 1012.4
20191117101941 47 10 8.0 12.0 0.00 0.02 0.01 94 1012.4
20191117100946 47 27 6.0 11.0 0.00 0.02 0.01 94 1012.4
20191117095935 47 15 6.0 12.0 0.00 0.02 0.01 94 1012.4
20191117094926 47 28 8.0 12.0 0.00 0.02 0.01 94 1012.1
20191117093924 47 26 8.0 11.0 0.00 0.02 0.01 95 1012.1
20191117092946 47 5 5.0 8.0 0.00 0.02 0.01 95 1011.9
20191117092004 47 354 6.0 11.0 0.00 0.02 0.01 95 1011.8
20191117090937 47 6 6.0 11.0 0.00 0.02 0.01 95 1011.6
20191117085900 46 31 6.0 10.0 0.00 0.02 0.01 96 1011.4
20191117084920 46 45 7.0 11.0 0.00 0.02 0.01 96 1011.4
20191117083924 46 37 6.0 11.0 0.00 0.02 0.01 96 1011.3
20191117082929 46 34 4.0 8.0 0.00 0.02 0.01 96 1011.2
20191117081907 46 341 4.0 8.0 0.00 0.02 0.01 96 1011.0
20191117080906 46 356 3.0 6.0 0.00 0.02 0.01 96 1011.0
20191117075926 46 4 2.0 6.0 0.00 0.02 0.01 96 1011.2
20191117074853 46 359 2.0 5.0 0.00 0.02 0.01 96 1010.6
20191117073907 46 343 3.0 5.0 0.00 0.02 0.01 96 1010.4
20191117072910 46 4 3.0 5.0 0.00 0.02 0.01 96 1010.4
20191117071930 46 1 3.0 5.0 0.00 0.02 0.01 96 1010.3
20191117070945 46 9 2.0 4.0 0.00 0.02 0.01 96 1010.2
20191117065945 46 331 2.0 3.0 0.00 0.02 0.01 96 1010.1
20191117064949 46 4 0.0 3.0 0.00 0.02 0.01 96 1010.0
20191117063952 46 4 0.0 0.0 0.00 0.02 0.01 96 1009.9
20191117062923 46 21 0.0 0.0 0.00 0.02 0.01 96 1009.7
20191117061929 46 345 0.0 0.0 0.00 0.02 0.01 96 1009.6
20191117060948 46 352 0.0 0.0 0.00 0.02 0.01 96 1009.6
20191117055934 46 0 0.0 0.0 0.00 0.02 0.01 96 1009.3
20191117054934 46 19 0.0 0.0 0.00 0.02 0.01 96 1009.3
20191117053936 46 345 0.0 0.0 0.00 0.02 0.01 96 1009.2
20191117052935 46 354 0.0 0.0 0.00 0.02 0.01 96 1009.0
20191117051859 46 13 0.0 0.0 0.00 0.02 0.01 96 1008.8
20191117050900 46 13 0.0 0.0 0.00 0.02 0.01 96 1008.7
20191117045903 46 14 0.0 0.0 0.00 0.02 0.01 96 1008.7
20191117044853 46 349 0.0 0.0 0.00 0.02 0.01 96 1008.6
20191117043916 46 352 0.0 0.0 0.00 0.02 0.01 96 1008.5
20191117042906 46 6 0.0 0.0 0.00 0.02 0.01 96 1008.5
20191117041858 46 25 0.0 0.0 0.00 0.02 0.01 96 1008.4
20191117040828 46 9 0.0 0.0 0.00 0.02 0.01 96 1008.4
20191117035755 46 3 0.0 0.0 0.00 0.02 0.01 96 1008.3
20191117034809 46 15 0.0 0.0 0.00 0.02 0.01 96 1008.3
20191117033735 46 42 0.0 0.0 0.00 0.02 0.01 96 1008.2
20191117032752 46 15 0.0 0.0 0.00 0.02 0.01 96 1008.1
20191117031813 46 348 0.0 0.0 0.00 0.02 0.01 96 1008.1
20191117030747 46 18 0.0 0.0 0.00 0.02 0.01 96 1008.0
20191117025747 46 12 0.0 0.0 0.00 0.02 0.01 96 1008.0
20191117024806 46 352 0.0 0.0 0.00 0.02 0.01 96 1008.0
20191117023806 46 13 0.0 0.0 0.00 0.02 0.01 96 1007.9
20191117022806 46 6 2.0 4.0 0.00 0.02 0.01 96 1007.9
20191117021729 46 330 2.0 4.0 0.00 0.02 0.01 96 1007.8
20191117020744 46 359 0.0 4.0 0.00 0.02 0.01 96 1007.9
20191117015733 46 354 0.0 0.0 0.00 0.01 0.00 96 1007.9
20191117014957 46 354 0.0 0.0 0.00 0.01 0.00 96 1007.8
20191117012632 46 350 0.0 0.0 0.00 0.01 0.00 96 1007.8
20191117011648 46 332 0.0 0.0 0.00 0.01 0.00 96 1007.8
20191117010618 46 332 0.0 0.0 0.00 0.00 0.00 96 1007.7
20191117005623 46 332 0.0 0.0 0.00 0.00 0.00 96 1007.7
20191117004645 46 332 0.0 0.0 0.00 0.00 0.00 96 1007.8
20191117003631 46 332 0.0 0.0 0.00 0.00 0.00 96 1007.6
20191117002627 46 332 0.0 0.0 0.00 0.00 0.00 96 1007.5
20191117001606 46 345 0.0 0.0 0.00 0.00 0.00 96 1007.4
20191117000555 46 339 0.0 0.0 0.00 0.00 0.00 96 1007.4
20191116235600 46 321 0.0 0.0 0.00 0.00 0.00 96 1007.3
20191116234606 46 330 0.0 0.0 0.00 0.00 0.00 96 1007.3
20191116233622 46 338 0.0 0.0 0.00 0.00 0.00 96 1007.3
20191116232547 46 351 0.0 0.0 0.00 0.00 0.00 96 1007.2
20191116231546 46 338 0.0 0.0 0.00 0.00 0.00 96 1007.1
20191116230523 46 354 0.0 0.0 0.00 0.00 0.00 96 1007.1
20191116225525 46 5 0.0 0.0 0.00 0.00 0.00 96 1007.0
20191116224535 46 347 0.0 0.0 0.00 0.00 0.00 96 1006.9
20191116223556 46 17 0.0 0.0 0.00 0.00 0.00 96 1006.9
20191116222551 46 354 1.0 0.0 0.00 0.00 0.00 96 1006.8
20191116221553 46 10 3.0 7.0 0.00 0.00 0.00 96 1006.8
20191116220611 46 349 5.0 7.0 0.00 0.00 0.00 96 1006.8
20191116215536 46 6 4.0 6.0 0.00 0.00 0.00 96 1006.7
20191116214527 46 349 4.0 7.0 0.00 0.00 0.00 96 1006.8
20191116213536 46 328 4.0 7.0 0.00 0.00 0.00 96 1006.8
20191116212520 46 347 4.0 7.0 0.00 0.00 0.00 96 1006.7
20191116211528 46 25 0.0 7.0 0.00 0.00 0.00 96 1006.7
20191116210520 46 342 0.0 0.0 0.00 0.00 0.00 96 1006.6
20191116205542 46 331 0.0 0.0 0.00 0.00 0.00 96 1006.6
20191116204509 46 10 0.0 0.0 0.00 0.00 0.00 96 1006.6
20191116203530 46 325 0.0 0.0 0.00 0.00 0.00 96 1006.5
20191116202543 46 328 0.0 0.0 0.00 0.00 0.00 96 1006.3
20191116201534 46 322 0.0 0.0 0.00 0.00 0.00 96 1006.4
20191116200508 46 331 0.0 0.0 0.00 0.00 0.00 96 1006.4
20191116195439 46 318 0.0 0.0 0.00 0.00 0.00 96 1006.4
20191116194412 46 319 0.0 0.0 0.00 0.00 0.00 96 1006.5
20191116193354 46 328 0.0 0.0 0.00 0.00 0.00 95 1006.5
20191116192401 46 335 0.0 0.0 0.00 0.00 0.00 95 1006.4
20191116191354 47 328 0.0 0.0 0.00 0.00 0.00 95 1006.3
20191116190411 47 328 0.0 0.0 0.00 0.00 0.00 95 1006.4
20191116185414 47 334 0.0 0.0 0.00 0.00 0.00 95 1006.3
20191116184339 47 336 0.0 0.0 0.00 0.00 0.00 95 1006.3
20191116183320 47 349 0.0 0.0 0.00 0.00 0.00 95 1006.3
20191116182245 47 4 0.0 0.0 0.00 0.00 0.00 95 1006.3
20191116181244 47 335 0.0 0.0 0.00 0.00 0.00 95 1006.2
20191116180248 47 357 0.0 0.0 0.00 0.00 0.00 95 1006.1
20191116175251 47 338 0.0 0.0 0.00 0.00 0.00 95 1006.0
20191116174235 47 321 0.0 0.0 0.00 0.00 0.00 95 1006.0
20191116173216 47 319 0.0 0.0 0.00 0.00 0.00 95 1006.0